Flight Track Log - Related Links

Times and Time Zones

All times are in EDT time to prevent confusion due to time zone crossing. See the N5089N flight status page for this flight to view local times or setup timezone preferences in your user account.


Time Position Orientation Groundspeed Altitude Reporting Facility
EDT Latitude Longitude Course Direction KTS MPH feet Rate Location/Type
Sun 02:57:00 PM 34.1476 -81.1992 35° Northeast  Level FlightAware Approximate
Sun 02:58:00 PM 34.1795 -81.1722 36° Northeast  Level FlightAware Approximate
Sun 02:59:00 PM 34.2111 -81.1446 36° Northeast  Level FlightAware Approximate
Sun 03:00:00 PM 34.2428 -81.1171 36° Northeast  Level FlightAware Approximate
Sun 03:01:00 PM 34.2744 -81.0895 36° Northeast  Level FlightAware Approximate
Sun 03:02:00 PM 34.3060 -81.0619 36° Northeast  Level FlightAware Approximate
Sun 03:03:00 PM 34.3376 -81.0343 36° Northeast  Level FlightAware Approximate
Sun 03:04:00 PM 34.3692 -81.0066 36° Northeast  Level FlightAware Approximate
Sun 03:05:00 PM 34.4008 -80.9790 36° Northeast  Level FlightAware Approximate
Sun 03:05:27 PM 34.3947 -81.0658 329° Northwest 142 163 7,000  Level Atlanta Center
Sun 03:06:00 PM 34.4324 -80.9513 36° Northeast  Level FlightAware Approximate
Sun 03:06:22 PM 34.4278 -81.0494 22° Northeast 146 168 7,000  Level Atlanta Center
Sun 03:07:00 PM 34.4640 -80.9236 36° Northeast  Level FlightAware Approximate
Sun 03:07:17 PM 34.4653 -81.0431 North 145 167 7,000  Level Atlanta Center
Sun 03:08:00 PM 34.4956 -80.8958 36° Northeast  Level FlightAware Approximate
Sun 03:08:24 PM 34.5089 -81.0339 10° North 145 167 7,000  Level Atlanta Center
Sun 03:09:00 PM 34.5272 -80.8681 36° Northeast  Level FlightAware Approximate
Sun 03:09:25 PM 34.5503 -81.0250 10° North 146 168 7,000  Level Atlanta Center
Sun 03:10:00 PM 34.5609 -80.8929 329° Northwest  Level FlightAware Approximate
Sun 03:10:31 PM 34.5903 -81.0336 350° North 141 162 7,000  Level Atlanta Center
Sun 03:11:27 PM 34.6158 -81.0606 319° Northwest 133 153 7,000  Level Atlanta Center
Sun 03:12:33 PM 34.6500 -81.0844 330° Northwest 131 151 7,000  Level Atlanta Center
Sun 03:13:34 PM 34.6839 -81.1111 327° Northwest 140 161 7,000  Level Atlanta Center
Sun 03:14:29 PM 34.7136 -81.1328 329° Northwest 134 154 7,000  Level Atlanta Center
Sun 03:15:36 PM 34.7519 -81.1619 328° Northwest 135 155 7,000 49 Level Atlanta Center
Sun 03:16:31 PM 34.7817 -81.1811 332° Northwest 136 157 7,100  Climbing Atlanta Center
Sun 03:17:32 PM 34.8114 -81.2078 324° Northwest 136 157 7,000 -49 Descending Atlanta Center
Sun 03:18:33 PM 34.8433 -81.2322 328° Northwest 135 155 7,000 52 Level Atlanta Center
Sun 03:19:28 PM 34.8731 -81.2539 329° Northwest 136 157 7,100  Climbing Atlanta Center
Sun 03:20:29 PM 34.9047 -81.2806 325° Northwest 139 160 7,000 -50 Descending Atlanta Center
Sun 03:21:29 PM 34.9367 -81.3025 331° Northwest 137 158 7,000  Level Atlanta Center
Sun 03:22:24 PM 34.9664 -81.3267 326° Northwest 134 154 7,000  Level Atlanta Center
Sun 03:23:43 PM 35.0089 -81.3583 329° Northwest 135 155 7,000 41 Level Atlanta Center
Sun 03:24:50 PM 35.0528 -81.3619 356° North 142 163 7,100 55 Climbing Atlanta Center
Sun 03:25:33 PM 35.0800 -81.3661 353° North 140 161 7,100 -58 Level Atlanta Center
Sun 03:26:34 PM 35.1175 -81.3700 355° North 135 155 7,000  Descending Atlanta Center
Sun 03:27:34 PM 35.1572 -81.3739 355° North 140 161 7,100 -50 Climbing Atlanta Center
Sun 03:28:35 PM 35.1950 -81.3778 355° North 140 161 6,900 -414 Descending Atlanta Center
Sun 03:29:30 PM 35.2369 -81.3842 353° North 159 183 6,300 -627 Descending Atlanta Center
Sun 03:30:49 PM 35.2933 -81.3872 357° North 155 178 5,500 -514 Descending Atlanta Center
Sun 03:31:50 PM 35.3392 -81.3933 354° North 154 177 5,100 -246 Descending Atlanta Center
Sun 03:32:51 PM 35.3811 -81.3997 353° North 145 167 5,000 -59 Descending Atlanta Center
Sun 03:33:32 PM 35.4103 -81.3989 North 149 171 5,000  Level Atlanta Center
Sun 03:34:32 PM 35.4478 -81.4003 358° North 149 171 5,000 400 Level Atlanta Center
Sun 03:35:32 PM 35.4683 -81.3767 43° Northeast 126 145 5,800 500 Climbing Atlanta Center
Sun 03:36:32 PM 35.4947 -81.3528 36° Northeast 112 129 6,000 100 Climbing Atlanta Center
Sun 03:37:32 PM 35.5275 -81.3211 38° Northeast 131 151 6,000  Level Atlanta Center
Sun 03:38:32 PM 35.5603 -81.2919 36° Northeast 138 159 6,000  Level Atlanta Center
Sun 03:39:32 PM 35.5931 -81.2600 38° Northeast 143 165 6,000  Level Atlanta Center
Sun 03:40:32 PM 35.6256 -81.2308 36° Northeast 143 165 6,000  Level Atlanta Center
Sun 03:41:32 PM 35.6622 -81.1914 41° Northeast 137 158 6,000  Level Atlanta Center
Sun 03:42:32 PM 35.6950 -81.1619 36° Northeast 142 163 6,000  Level Atlanta Center
Sun 03:43:32 PM 35.7236 -81.1381 34° Northeast 142 163 6,000  Level Atlanta Center
Sun 03:44:32 PM 35.7606 -81.1136 28° Northeast 151 174 6,000  Level Atlanta Center
Sun 03:45:32 PM 35.7953 -81.0869 32° Northeast 144 166 6,000  Level Atlanta Center
Sun 03:46:32 PM 35.8303 -81.0625 30° Northeast 144 166 6,000  Level Atlanta Center
Sun 03:47:32 PM 35.8653 -81.0433 24° Northeast 133 153 6,000  Level Atlanta Center
Sun 03:48:32 PM 35.9044 -81.0292 16° North 128 147 6,000  Level Atlanta Center
Sun 03:49:32 PM 35.9464 -81.0300 359° North 128 147 6,000  Level Atlanta Center
Sun 03:50:32 PM 35.9811 -81.0031 32° Northeast 128 147 6,000 50 Level Atlanta Center
Sun 03:51:32 PM 36.0136 -80.9711 38° Northeast 138 159 6,100  Climbing Atlanta Center
Sun 03:52:32 PM 36.0442 -80.9417 38° Northeast 148 170 6,000  Descending Atlanta Center
Sun 03:53:32 PM 36.0789 -80.9122 34° Northeast 148 170 6,100  Climbing Atlanta Center
Sun 03:54:32 PM 36.1114 -80.8800 39° Northeast 148 170 6,000 -50 Descending Atlanta Center
Sun 03:55:32 PM 36.1419 -80.8506 38° Northeast 148 170 6,000  Level Atlanta Center
Sun 03:56:32 PM 36.1744 -80.8158 41° Northeast 148 170 6,000  Level Atlanta Center
Sun 03:57:32 PM 36.2050 -80.7864 38° Northeast 148 170 6,000  Level Atlanta Center
Sun 03:58:32 PM 36.2378 -80.7644 28° Northeast 148 170 6,000  Level Atlanta Center
Sun 03:59:32 PM 36.2775 -80.7681 356° North 135 155 6,000  Level Atlanta Center
Sun 04:00:32 PM 36.3169 -80.7664 North 135 155 6,000  Level Atlanta Center
Sun 04:01:32 PM 36.3564 -80.7569 11° North 140 161 6,000  Level Atlanta Center
Sun 04:02:32 PM 36.3939 -80.7528 North 133 153 6,000  Level Atlanta Center
Sun 04:03:32 PM 36.4333 -80.7436 11° North 138 159 6,000  Level Atlanta Center
Sun 04:04:32 PM 36.4728 -80.7444 359° North 138 159 6,000  Level Atlanta Center
Sun 04:05:32 PM 36.5122 -80.7325 14° North 138 159 6,000 300 Level Atlanta Center
Sun 04:06:32 PM 36.5383 -80.7003 45° Northeast 132 152 6,600 500 Climbing Atlanta Center
Sun 04:07:32 PM 36.5606 -80.6711 47° Northeast 119 137 7,000 200 Climbing Atlanta Center
Sun 04:08:32 PM 36.5931 -80.6386 39° Northeast 126 145 7,000  Level Atlanta Center
Sun 04:09:32 PM 36.6214 -80.6039 45° Northeast 139 160 7,000  Level Atlanta Center
Sun 04:10:32 PM 36.6558 -80.5739 35° Northeast 139 160 7,000  Level Atlanta Center
Sun 04:11:32 PM 36.6839 -80.5364 47° Northeast 139 160 7,000  Level Atlanta Center
Sun 04:12:32 PM 36.7164 -80.5039 39° Northeast 139 160 7,000  Level Atlanta Center
Sun 04:13:32 PM 36.7406 -80.4717 47° Northeast 134 154 7,000 50 Level Atlanta Center
Sun 04:14:32 PM 36.7622 -80.4267 59° Northeast 134 154 7,100 50 Climbing Atlanta Center
Sun 04:15:32 PM 36.7817 -80.3844 60° Northeast 139 160 7,100  Level Atlanta Center
Sun 04:16:32 PM 36.7992 -80.3369 65° Northeast 144 166 7,100  Level Atlanta Center
Sun 04:17:32 PM 36.8247 -80.2917 55° Northeast 144 166 7,100 -7 Level Atlanta Center
Sun 04:19:00 PM 36.8706 -80.2499 36° Northeast  Level FlightAware Approximate
Sun 04:26:00 PM 37.0865 -80.0414 41° Northeast  Level FlightAware Approximate
Sun 04:27:00 PM 37.1158 -80.0097 41° Northeast  Level FlightAware Approximate
Sun 04:28:00 PM 37.1451 -79.9780 41° Northeast  Level FlightAware Approximate
Sun 04:29:00 PM 37.1744 -79.9463 41° Northeast  Level FlightAware Approximate
Sun 04:30:00 PM 37.2037 -79.9145 41° Northeast  Level FlightAware Approximate
Sun 04:31:00 PM 37.2330 -79.8828 41° Northeast  Level FlightAware Approximate
Sun 04:32:00 PM 37.2623 -79.8510 41° Northeast  Level FlightAware Approximate
Sun 04:33:00 PM 37.2915 -79.8192 41° Northeast  Level FlightAware Approximate
Sun 04:34:00 PM 37.3208 -79.7873 41° Northeast  Level FlightAware Approximate
Sun 04:35:00 PM 37.3500 -79.7554 41° Northeast  Level FlightAware Approximate
Sun 04:36:00 PM 37.3793 -79.7235 41° Northeast  Level FlightAware Approximate
Sun 04:37:00 PM 37.4085 -79.6916 41° Northeast  Level FlightAware Approximate
Sun 04:38:00 PM 37.4377 -79.6597 41° Northeast  Level FlightAware Approximate
Sun 04:39:00 PM 37.4669 -79.6277 41° Northeast  Level FlightAware Approximate
Sun 04:40:00 PM 37.4961 -79.5957 41° Northeast  Level FlightAware Approximate
Sun 04:41:00 PM 37.5253 -79.5637 41° Northeast  Level FlightAware Approximate
Sun 04:42:00 PM 37.5545 -79.5317 41° Northeast  Level FlightAware Approximate
Sun 04:43:00 PM 37.5837 -79.4996 43° Northeast  Level FlightAware Approximate
Sun 04:44:00 PM 37.6120 -79.4662 43° Northeast  Level FlightAware Approximate
Sun 04:45:00 PM 37.6403 -79.4329 43° Northeast  Level FlightAware Approximate
Sun 04:46:00 PM 37.6685 -79.3995 43° Northeast  Level FlightAware Approximate
Sun 04:46:36 PM 37.7167 -79.3167 42° Northeast 172 198 6,900  Level Potomac TRACON
Sun 04:47:00 PM 37.6968 -79.3661 43° Northeast  Level FlightAware Approximate
Sun 04:47:36 PM 37.7500 -79.2833 38° Northeast 150 173 6,900  Level Potomac TRACON
Sun 04:48:00 PM 37.7250 -79.3327 43° Northeast  Level FlightAware Approximate
Sun 04:48:42 PM 37.7833 -79.2333 50° Northeast 158 182 6,900  Level Potomac TRACON
Sun 04:49:00 PM 37.7533 -79.2992 43° Northeast  Level FlightAware Approximate
Sun 04:49:36 PM 37.8167 -79.2167 22° Northeast 157 181 6,900  Level Potomac TRACON
Sun 04:50:00 PM 37.7826 -79.2674 38° Northeast  Level FlightAware Approximate
Sun 04:50:37 PM 37.8500 -79.1667 50° Northeast 153 176 6,900  Level Potomac TRACON
Sun 04:51:00 PM 37.8114 -79.2346 42° Northeast  Level FlightAware Approximate
Sun 04:51:42 PM 37.8833 -79.1333 38° Northeast 152 175 6,900  Level Potomac TRACON
Sun 04:52:00 PM 37.8401 -79.2018 42° Northeast  Level FlightAware Approximate
Sun 04:53:37 PM 37.9500 -79.0667 38° Northeast 152 175 7,100  Level Potomac TRACON
Sun 04:54:37 PM 37.9667 -79.0333 58° Northeast 155 178 7,100  Level Potomac TRACON
Sun 04:55:37 PM 38.0000 -79.0000 38° Northeast 156 180 7,100  Level Potomac TRACON
Sun 04:56:37 PM 38.0333 -78.9667 38° Northeast 155 178 7,100  Level Potomac TRACON
Sun 04:57:43 PM 38.0833 -78.9167 38° Northeast 155 178 7,100  Level Potomac TRACON
Sun 04:58:37 PM 38.1000 -78.9000 38° Northeast 156 180 7,100  Level Potomac TRACON
Sun 04:59:37 PM 38.1333 -78.8667 38° Northeast 150 173 7,100  Level Potomac TRACON
Sun 05:00:37 PM 38.1833 -78.8333 28° Northeast 147 169 7,100  Level Potomac TRACON
Sun 05:01:37 PM 38.2167 -78.8167 21° North 149 171 7,100  Level Potomac TRACON
Sun 05:02:37 PM 38.2500 -78.7833 38° Northeast 150 173 7,100  Level Potomac TRACON
Sun 05:03:37 PM 38.2833 -78.7500 38° Northeast 148 170 7,100  Level Potomac TRACON
Sun 05:04:37 PM 38.3167 -78.7333 21° North 155 178 7,100  Level Potomac TRACON
Sun 05:05:37 PM 38.3500 -78.7000 38° Northeast 147 169 7,100  Level Potomac TRACON
Sun 05:06:37 PM 38.3833 -78.6667 38° Northeast 150 173 7,100  Level Potomac TRACON
Sun 05:07:38 PM 38.4167 -78.6500 21° North 152 175 7,100  Level Potomac TRACON
Sun 05:08:38 PM 38.4500 -78.6167 38° Northeast 149 171 7,100  Level Potomac TRACON
Sun 05:09:38 PM 38.5000 -78.5833 28° Northeast 152 175 7,100  Level Potomac TRACON
Sun 05:10:38 PM 38.5333 -78.5500 38° Northeast 153 176 7,100  Level Potomac TRACON
Sun 05:11:38 PM 38.5667 -78.5333 21° North 148 170 7,100  Level Potomac TRACON
Sun 05:12:38 PM 38.6000 -78.5000 38° Northeast 149 171 7,100  Level Potomac TRACON
Sun 05:13:38 PM 38.6333 -78.4667 38° Northeast 152 175 7,100  Level Potomac TRACON
Sun 05:14:38 PM 38.6667 -78.4500 21° North 154 177 7,100  Level Potomac TRACON
Sun 05:15:38 PM 38.7000 -78.4167 38° Northeast 146 168 7,100  Level Potomac TRACON
Sun 05:16:38 PM 38.7333 -78.3833 38° Northeast 150 173 7,100  Level Potomac TRACON
Sun 05:17:38 PM 38.7667 -78.3667 21° North 149 171 7,100  Level Potomac TRACON
Sun 05:18:38 PM 38.8000 -78.3333 38° Northeast 147 169 7,100  Level Potomac TRACON
Sun 05:19:44 PM 38.8500 -78.3000 27° Northeast 148 170 7,100  Level Potomac TRACON
Sun 05:20:44 PM 38.8833 -78.2667 38° Northeast 148 170 7,100  Level Potomac TRACON
Sun 05:21:39 PM 38.9000 -78.2500 38° Northeast 151 174 7,100  Level Potomac TRACON
Sun 05:22:39 PM 38.9500 -78.2167 27° Northeast 152 175 7,100  Level Potomac TRACON
Sun 05:23:45 PM 38.9833 -78.1833 38° Northeast 152 175 7,100  Level Potomac TRACON
Sun 05:24:39 PM 39.0167 -78.1667 21° North 151 174 7,100  Level Potomac TRACON
Sun 05:25:39 PM 39.0500 -78.1333 38° Northeast 151 174 7,100  Level Potomac TRACON
Sun 05:26:39 PM 39.0833 -78.1000 38° Northeast 152 175 7,100  Level Potomac TRACON
Sun 05:27:45 PM 39.1167 -78.0667 38° Northeast 152 175 7,100  Level Potomac TRACON
Sun 05:28:46 PM 39.1667 -78.0333 27° Northeast 152 175 7,100  Level Potomac TRACON
Sun 05:29:46 PM 39.1833 -78.0000 57° Northeast 152 175 7,100  Level Potomac TRACON
Sun 05:30:47 PM 39.2167 -77.9667 38° Northeast 150 173 7,100  Level Potomac TRACON
Sun 05:31:47 PM 39.2500 -77.9333 38° Northeast 150 173 7,100  Level Potomac TRACON
Sun 05:32:53 PM 39.2833 -77.8833 49° Northeast 150 173 7,100 -333 Level Potomac TRACON
Sun 05:33:53 PM 39.3000 -77.8500 57° Northeast 155 178 6,400 -496 Descending Potomac TRACON
Sun 05:34:54 PM 39.3333 -77.8000 49° Northeast 156 180 6,100 -157 Descending Potomac TRACON
Sun 05:35:48 PM 39.3500 -77.7500 67° East 148 170 6,100  Level Potomac TRACON
Sun 05:36:48 PM 39.3500 -77.7000 90° East 140 161 6,100 -95 Level Potomac TRACON
Sun 05:37:54 PM 39.3667 -77.6500 67° East 144 166 5,900 -400 Descending Potomac TRACON
Sun 05:38:48 PM 39.3833 -77.6000 67° East 160 184 5,300 -421 Descending Potomac TRACON
Sun 05:39:48 PM 39.3833 -77.5333 90° East 161 185 5,100 -100 Descending Potomac TRACON
Sun 05:40:48 PM 39.4000 -77.4833 67° East 152 175 5,100 -50 Level Potomac TRACON
Sun 05:41:48 PM 39.4167 -77.4333 67° East 157 181 5,000 -50 Descending Potomac TRACON
Sun 05:42:49 PM 39.4333 -77.3833 67° East 158 182 5,000 -283 Level Potomac TRACON
Sun 05:43:55 PM 39.4500 -77.3333 67° East 164 189 4,400 -450 Descending Potomac TRACON
Sun 05:44:49 PM 39.4833 -77.2833 49° Northeast 158 182 4,100 -313 Descending Potomac TRACON
Sun 05:45:50 PM 39.5000 -77.2500 57° Northeast 149 171 3,800 -472 Descending Potomac TRACON
Sun 05:46:56 PM 39.5333 -77.2000 49° Northeast 146 168 3,100 -400 Descending Potomac TRACON
Sun 05:47:50 PM 39.5500 -77.1833 38° Northeast 141 162 3,000  Descending Potomac TRACON
Sun 05:48:51 PM 39.5500 -77.2167 270° West 118 136 3,100  Climbing Potomac TRACON
Sun 05:49:51 PM 39.5333 -77.2500 237° Southwest 118 136 3,000 -300 Descending Potomac TRACON
Sun 05:50:51 PM 39.5000 -77.2833 218° Southwest 114 131 2,500 -250 Descending Potomac TRACON
Sun 05:51:51 PM 39.4833 -77.3000 218° Southwest 106 122 2,500  Level Potomac TRACON
Sun 05:52:51 PM 39.4833 -77.3000 360° North 106 122 2,500  Level Potomac TRACON
Sun 05:54:00 PM 39.4472 -77.3362 218° Southwest  Level FlightAware Approximate

Login

Don't have an account? Register now (free) for customized features, flight alerts, and more!